Time;durP1;ratioP1;P1;durP2;ratioP2;P2;SDS_P1;SDS_P2;PMS_P1;PMS_P2;Temp;Humidity;BMP_temperature;BMP_pressure;BME280_temperature;BME280_humidity;BME280_pressure;Samples;Min_cycle;Max_cycle;Signal;HPM_P1;HPM_P2
2022/12/22 03:28:03;;;;;;;;;;;8.60;99.90;;;;;;5049425;28;19924;-69
2022/12/22 03:30:30;;;;;;;;;;;8.60;99.90;;;;;;4982172;28;167826;-69
2022/12/22 03:32:56;;;;;;;;;;;8.60;99.90;;;;;;5034889;28;19924;-70
2022/12/22 03:35:23;;;;;;;;;;;8.60;99.90;;;;;;5019909;28;187271;-70
2022/12/22 03:37:49;;;;;;;;;;;8.60;99.90;;;;;;5067555;28;19940;-69
2022/12/22 03:40:15;;;;;;;;;;;8.50;99.90;;;;;;5011411;28;208591;-69
2022/12/22 03:48:10;;;;;;;;;;;8.60;99.90;;;;;;5060209;28;20433;-70
2022/12/22 03:50:36;;;;;;;;;;;8.60;99.90;;;;;;5003004;28;208089;-69
2022/12/22 03:53:02;;;;;;;;;;;8.60;99.90;;;;;;5046948;28;19924;-68
2022/12/22 03:55:28;;;;;;;;;;;8.60;99.90;;;;;;4994996;28;204545;-69
2022/12/22 03:57:54;;;;;;;;;;;8.60;99.90;;;;;;5050657;28;20503;-69
2022/12/22 04:00:20;;;;;;;;;;;8.60;99.90;;;;;;5010373;28;210058;-69
2022/12/22 04:02:46;;;;;;;;;;;8.60;99.90;;;;;;5047133;28;19928;-69
2022/12/22 04:05:12;;;;;;;;;;;8.60;99.90;;;;;;5007178;28;215105;-68
2022/12/22 04:07:38;;;;;;;;;;;8.60;99.90;;;;;;5043775;28;19924;-69
2022/12/22 04:12:55;;;;;;;;;;;8.60;99.90;;;;;;5062199;28;19924;-69
2022/12/22 04:15:26;;;;;;;;;;;8.60;99.90;;;;;;5003566;28;207575;-69
2022/12/22 04:17:52;;;;;;;;;;;8.60;99.90;;;;;;5036551;28;19925;-69
2022/12/22 04:20:19;;;;;;;;;;;8.50;99.90;;;;;;5010158;28;208413;-69
2022/12/22 04:22:45;;;;;;;;;;;8.60;99.90;;;;;;5043365;28;20306;-69
2022/12/22 04:25:12;;;;;;;;;;;8.60;99.90;;;;;;5006826;28;207492;-69
2022/12/22 04:27:38;;;;;;;;;;;8.60;99.90;;;;;;5031560;28;20309;-69
2022/12/22 04:30:05;;;;;;;;;;;8.60;99.90;;;;;;5026665;28;209743;-70
2022/12/22 04:32:31;;;;;;;;;;;8.60;99.90;;;;;;5050262;28;19928;-69
2022/12/22 04:34:57;;;;;;;;;;;8.60;99.90;;;;;;5051074;28;208010;-70
2022/12/22 04:37:23;;;;;;;;;;;8.60;99.90;;;;;;5025788;28;183895;-70
2022/12/22 04:39:49;;;;;;;;;;;8.60;99.90;;;;;;5060447;28;19963;-70
2022/12/22 04:42:15;;;;;;;;;;;8.50;99.90;;;;;;4988279;28;177521;-70
2022/12/22 04:44:41;;;;;;;;;;;8.60;99.90;;;;;;5057578;28;19924;-70
2022/12/22 04:47:07;;;;;;;;;;;8.50;99.90;;;;;;5008703;28;193281;-70
2022/12/22 04:49:33;;;;;;;;;;;8.60;99.90;;;;;;5062323;28;19932;-70
2022/12/22 04:51:59;;;;;;;;;;;8.60;99.90;;;;;;5006493;28;206328;-69
2022/12/22 04:54:25;;;;;;;;;;;8.60;99.90;;;;;;5068571;28;19924;-69
2022/12/22 04:56:51;;;;;;;;;;;8.60;99.90;;;;;;4977782;28;207027;-70
2022/12/22 04:59:17;;;;;;;;;;;8.60;99.90;;;;;;5085795;28;19928;-69
2022/12/22 05:01:43;;;;;;;;;;;8.50;99.90;;;;;;4988211;28;108018;-70
2022/12/22 05:04:09;;;;;;;;;;;8.60;99.90;;;;;;5056839;28;19956;-70
2022/12/22 05:06:35;;;;;;;;;;;8.60;99.90;;;;;;4979168;28;197873;-68
2022/12/22 05:09:01;;;;;;;;;;;8.60;99.90;;;;;;5052402;28;19930;-69
2022/12/22 05:11:27;;;;;;;;;;;8.50;99.90;;;;;;4996174;28;188568;-69
2022/12/22 05:13:53;;;;;;;;;;;8.60;99.90;;;;;;5037543;28;19927;-70
2022/12/22 05:16:20;;;;;;;;;;;8.50;99.90;;;;;;5001870;28;129281;-70
2022/12/22 05:18:46;;;;;;;;;;;8.50;99.90;;;;;;5059323;28;19936;-70
2022/12/22 05:21:13;;;;;;;;;;;8.50;99.90;;;;;;5005406;28;206844;-70
2022/12/22 05:23:39;;;;;;;;;;;8.50;99.90;;;;;;5050294;28;19928;-70
2022/12/22 05:26:06;;;;;;;;;;;8.50;99.90;;;;;;4990295;28;204530;-69
2022/12/22 05:28:32;;;;;;;;;;;8.50;99.90;;;;;;5074920;28;21361;-69
2022/12/22 05:31:05;;;;;;;;;;;8.50;99.90;;;;;;5021620;28;189253;-69
2022/12/22 05:33:41;;;;;;;;;;;;;;;;;;;;;
2022/12/22 05:36:08;;;;;;;;;;;8.50;99.90;;;;;;5018717;28;207697;-69
2022/12/22 05:38:34;;;;;;;;;;;8.50;99.90;;;;;;5057658;28;19932;-69
2022/12/22 05:40:59;;;;;;;;;;;8.40;99.90;;;;;;4996496;28;182649;-70
2022/12/22 05:43:25;;;;;;;;;;;8.40;99.90;;;;;;5030026;28;20025;-69
2022/12/22 05:45:52;;;;;;;;;;;8.40;99.90;;;;;;5000523;28;207037;-69
2022/12/22 05:48:18;;;;;;;;;;;8.40;99.90;;;;;;5043651;28;19935;-70
2022/12/22 05:50:44;;;;;;;;;;;8.40;99.90;;;;;;5003709;28;209201;-70
2022/12/22 05:53:10;;;;;;;;;;;8.30;99.90;;;;;;5047296;28;21964;-71
2022/12/22 05:55:36;;;;;;;;;;;8.30;99.90;;;;;;5013727;28;147242;-70
2022/12/22 05:58:02;;;;;;;;;;;8.30;99.90;;;;;;5069718;28;20492;-71
2022/12/22 06:00:30;;;;;;;;;;;8.30;99.90;;;;;;5005579;28;207012;-70
2022/12/22 06:02:56;;;;;;;;;;;8.30;99.90;;;;;;5032930;28;19932;-70
2022/12/22 06:05:22;;;;;;;;;;;8.30;99.90;;;;;;5008144;28;171775;-71
2022/12/22 06:07:48;;;;;;;;;;;8.30;99.90;;;;;;5023531;28;19928;-68
2022/12/22 06:10:14;;;;;;;;;;;8.30;99.90;;;;;;5017928;28;212165;-70
2022/12/22 06:12:41;;;;;;;;;;;8.20;99.90;;;;;;5046585;28;19970;-69
2022/12/22 06:15:07;;;;;;;;;;;8.20;99.90;;;;;;5010382;28;219209;-69
2022/12/22 06:17:33;;;;;;;;;;;8.20;99.90;;;;;;5061395;28;19924;-72
2022/12/22 06:20:11;;;;;;;;;;;8.20;99.90;;;;;;5035743;28;240447;-73
2022/12/22 06:22:37;;;;;;;;;;;8.10;99.90;;;;;;5014222;28;19928;-74
2022/12/22 06:25:03;;;;;;;;;;;8.10;99.90;;;;;;5022829;28;212143;-73
2022/12/22 06:27:29;;;;;;;;;;;8.10;99.90;;;;;;5048245;28;19921;-72
2022/12/22 06:29:56;;;;;;;;;;;8.10;99.90;;;;;;5037055;28;207703;-72
2022/12/22 06:32:21;;;;;;;;;;;8.10;99.90;;;;;;5025044;28;61734;-71
2022/12/22 06:34:47;;;;;;;;;;;8.00;99.90;;;;;;5062678;28;19925;-71
2022/12/22 06:37:13;;;;;;;;;;;8.00;99.90;;;;;;4974326;28;208104;-72
2022/12/22 06:39:39;;;;;;;;;;;8.00;99.90;;;;;;5061606;28;19932;-71
2022/12/22 06:44:51;;;;;;;;;;;7.90;99.90;;;;;;5059052;28;20373;-71
2022/12/22 06:47:17;;;;;;;;;;;7.80;99.90;;;;;;5021479;28;206737;-71
2022/12/22 06:49:43;;;;;;;;;;;7.70;99.90;;;;;;5055540;28;19925;-72
2022/12/22 06:52:09;;;;;;;;;;;7.70;99.90;;;;;;4996018;28;191597;-70
2022/12/22 06:54:35;;;;;;;;;;;7.60;99.90;;;;;;5083794;28;20385;-72
2022/12/22 06:57:03;;;;;;;;;;;7.50;99.90;;;;;;5024472;28;204942;-72
2022/12/22 06:59:28;;;;;;;;;;;7.50;99.90;;;;;;5092723;28;19925;-73
2022/12/22 07:01:54;;;;;;;;;;;7.50;99.90;;;;;;4992228;28;173081;-71
2022/12/22 07:04:20;;;;;;;;;;;7.40;99.90;;;;;;5060688;28;19920;-72
2022/12/22 07:06:47;;;;;;;;;;;7.40;99.90;;;;;;5009183;28;226195;-72
2022/12/22 07:09:13;;;;;;;;;;;7.50;99.90;;;;;;5057761;28;19924;-72
2022/12/22 07:11:39;;;;;;;;;;;7.50;99.90;;;;;;5008206;28;218431;-73
2022/12/22 07:14:05;;;;;;;;;;;7.50;99.90;;;;;;5056239;28;20455;-73
2022/12/22 07:16:31;;;;;;;;;;;7.50;99.90;;;;;;5020995;28;207588;-73
2022/12/22 07:18:57;;;;;;;;;;;7.50;99.90;;;;;;5055869;28;19928;-73
2022/12/22 07:21:22;;;;;;;;;;;7.50;99.90;;;;;;5001027;28;169572;-75
2022/12/22 07:23:48;;;;;;;;;;;7.50;99.90;;;;;;5056400;28;19974;-74
2022/12/22 07:26:14;;;;;;;;;;;7.50;99.90;;;;;;5004170;28;207870;-74
2022/12/22 07:28:41;;;;;;;;;;;7.50;99.90;;;;;;5036813;28;19921;-74
2022/12/22 07:31:07;;;;;;;;;;;7.50;99.90;;;;;;5010781;28;46373;-74
2022/12/22 07:33:33;;;;;;;;;;;7.50;99.90;;;;;;5052689;28;19924;-73
2022/12/22 07:36:06;;;;;;;;;;;7.50;99.90;;;;;;5005068;28;164766;-73
2022/12/22 07:38:34;;;;;;;;;;;7.50;99.90;;;;;;5050986;28;19931;-74
2022/12/22 07:41:00;;;;;;;;;;;7.50;99.90;;;;;;4999237;28;210665;-73
2022/12/22 07:43:26;;;;;;;;;;;7.40;99.90;;;;;;5054875;28;19935;-73
2022/12/22 07:45:52;;;;;;;;;;;7.40;99.90;;;;;;5013656;28;176195;-75
2022/12/22 07:51:04;;;;;;;;;;;7.40;99.90;;;;;;5020332;28;206619;-72
2022/12/22 07:53:30;;;;;;;;;;;7.40;99.90;;;;;;5073630;28;19925;-73
2022/12/22 07:56:00;;;;;;;;;;;7.30;99.90;;;;;;5002021;28;213726;-73
2022/12/22 07:58:25;;;;;;;;;;;7.30;99.90;;;;;;5050929;28;19944;-75
2022/12/22 08:00:55;;;;;;;;;;;7.40;99.90;;;;;;5022089;28;185007;-73
2022/12/22 08:03:21;;;;;;;;;;;7.30;99.90;;;;;;5060895;28;19935;-75
2022/12/22 08:05:47;;;;;;;;;;;7.40;99.90;;;;;;4992515;28;204340;-76
2022/12/22 08:08:13;;;;;;;;;;;7.40;99.90;;;;;;5065748;28;19950;-74
2022/12/22 08:10:39;;;;;;;;;;;7.40;99.90;;;;;;5035995;28;102679;-71
2022/12/22 08:13:05;;;;;;;;;;;7.30;99.90;;;;;;5070058;28;19920;-73
2022/12/22 08:15:31;;;;;;;;;;;7.30;99.90;;;;;;5008942;28;202655;-73
2022/12/22 08:17:57;;;;;;;;;;;7.30;99.90;;;;;;5066649;28;19974;-73
2022/12/22 08:20:23;;;;;;;;;;;7.30;99.90;;;;;;5010930;28;210797;-73
2022/12/22 08:22:48;;;;;;;;;;;7.30;99.90;;;;;;5037798;28;19925;-72
2022/12/22 08:25:14;;;;;;;;;;;7.20;99.90;;;;;;5008131;28;204765;-72
2022/12/22 08:27:43;;;;;;;;;;;7.10;99.90;;;;;;5046426;28;19917;-73
2022/12/22 08:30:09;;;;;;;;;;;7.10;99.90;;;;;;5010603;28;207821;-73
2022/12/22 08:32:36;;;;;;;;;;;7.00;99.90;;;;;;5047106;28;19920;-72
2022/12/22 08:35:02;;;;;;;;;;;7.00;99.90;;;;;;5027684;28;212798;-76
2022/12/22 08:37:31;;;;;;;;;;;6.90;99.90;;;;;;5060861;28;19920;-73
2022/12/22 08:40:00;;;;;;;;;;;7.00;99.90;;;;;;5071855;28;207676;-73
2022/12/22 08:42:27;;;;;;;;;;;7.00;99.90;;;;;;5038088;28;19932;-72
2022/12/22 08:44:53;;;;;;;;;;;6.90;99.90;;;;;;5059576;28;209631;-76
2022/12/22 08:47:19;;;;;;;;;;;6.80;99.90;;;;;;5001476;28;206807;-73
2022/12/22 08:49:45;;;;;;;;;;;6.80;99.90;;;;;;5061791;28;19925;-73
2022/12/22 08:52:11;;;;;;;;;;;6.70;99.90;;;;;;5000936;28;144483;-73
2022/12/22 08:54:37;;;;;;;;;;;6.70;99.90;;;;;;5055948;28;19924;-75
2022/12/22 08:57:03;;;;;;;;;;;6.70;99.90;;;;;;4990709;28;207304;-74
2022/12/22 08:59:29;;;;;;;;;;;6.70;99.90;;;;;;5058687;28;19932;-73
2022/12/22 09:01:55;;;;;;;;;;;6.70;99.90;;;;;;4997973;28;207462;-72
2022/12/22 09:04:21;;;;;;;;;;;6.70;99.90;;;;;;5056867;28;19921;-73
2022/12/22 09:06:49;;;;;;;;;;;6.60;99.90;;;;;;4994284;28;207311;-72
2022/12/22 09:09:15;;;;;;;;;;;6.60;99.90;;;;;;5062829;28;19968;-73
2022/12/22 09:11:41;;;;;;;;;;;6.60;99.90;;;;;;4990834;28;207490;-73
2022/12/22 09:14:08;;;;;;;;;;;6.60;99.90;;;;;;5057465;28;19931;-73
2022/12/22 09:16:34;;;;;;;;;;;6.70;99.90;;;;;;5000917;28;90033;-73
2022/12/22 09:19:00;;;;;;;;;;;6.70;99.90;;;;;;5049896;28;20376;-73
2022/12/22 09:21:27;;;;;;;;;;;6.70;99.90;;;;;;4986496;28;167956;-72
2022/12/22 09:23:53;;;;;;;;;;;6.70;99.90;;;;;;5052322;28;19921;-72
2022/12/22 09:26:20;;;;;;;;;;;6.70;99.90;;;;;;5016352;28;215991;-73
2022/12/22 09:28:46;;;;;;;;;;;6.70;99.90;;;;;;5062287;28;19924;-73
2022/12/22 09:31:13;;;;;;;;;;;6.80;99.90;;;;;;4998667;28;199225;-72
2022/12/22 09:33:39;;;;;;;;;;;6.70;99.90;;;;;;5058533;28;20336;-73
2022/12/22 09:36:12;;;;;;;;;;;6.70;99.90;;;;;;5010636;28;208493;-73
2022/12/22 09:38:38;;;;;;;;;;;6.60;99.90;;;;;;5033004;28;19924;-73
2022/12/22 09:41:23;;;;;;;;;;;6.50;99.90;;;;;;5009233;28;209544;-73
2022/12/22 09:43:49;;;;;;;;;;;6.50;99.90;;;;;;5057728;28;19927;-71
2022/12/22 09:46:20;;;;;;;;;;;6.50;99.90;;;;;;4990997;28;205606;-72
2022/12/22 09:48:46;;;;;;;;;;;6.40;99.90;;;;;;5049523;28;20299;-73
2022/12/22 09:51:12;;;;;;;;;;;6.40;99.90;;;;;;5008189;28;101475;-72
2022/12/22 09:53:39;;;;;;;;;;;6.40;99.90;;;;;;5056448;28;20317;-72
2022/12/22 09:56:05;;;;;;;;;;;6.40;99.90;;;;;;5000206;28;206446;-73
2022/12/22 09:58:33;;;;;;;;;;;6.40;99.90;;;;;;5044626;28;19935;-73
2022/12/22 10:01:08;;;;;;;;;;;6.40;99.90;;;;;;4998396;28;208404;-73
2022/12/22 10:03:34;;;;;;;;;;;6.40;99.90;;;;;;5069595;28;19952;-73
2022/12/22 10:06:19;;;;;;;;;;;6.40;99.90;;;;;;4992692;28;176659;-74
2022/12/22 10:08:46;;;;;;;;;;;6.40;99.90;;;;;;5047172;28;19933;-73
2022/12/22 10:11:14;;;;;;;;;;;6.50;99.90;;;;;;4983947;28;207088;-72
2022/12/22 10:13:42;;;;;;;;;;;6.60;99.90;;;;;;5043958;28;21379;-73
2022/12/22 10:16:21;;;;;;;;;;;6.60;99.90;;;;;;5022658;28;193426;-73
2022/12/22 10:19:06;;;;;;;;;;;6.70;99.90;;;;;;5048264;28;20598;-73
2022/12/22 10:21:32;;;;;;;;;;;6.70;99.90;;;;;;5004965;28;206982;-73
2022/12/22 10:23:58;;;;;;;;;;;6.90;99.90;;;;;;5068265;28;19944;-73
2022/12/22 10:26:26;;;;;;;;;;;6.90;99.90;;;;;;4999394;28;215203;-73
2022/12/22 10:28:53;;;;;;;;;;;7.00;99.90;;;;;;5051047;28;19931;-74
2022/12/22 10:31:24;;;;;;;;;;;7.00;99.90;;;;;;4980432;28;182034;-74
2022/12/22 10:33:52;;;;;;;;;;;7.00;99.90;;;;;;5051790;28;19935;-71
2022/12/22 10:36:23;;;;;;;;;;;7.00;99.90;;;;;;4995038;28;209358;-71
2022/12/22 10:38:52;;;;;;;;;;;7.10;99.90;;;;;;5046112;28;19955;-71
2022/12/22 10:41:20;;;;;;;;;;;7.10;99.90;;;;;;5008273;28;181708;-72
2022/12/22 10:43:50;;;;;;;;;;;7.20;99.90;;;;;;5057056;28;20313;-73
2022/12/22 10:46:17;;;;;;;;;;;7.20;99.90;;;;;;5002199;28;203322;-72
2022/12/22 10:48:43;;;;;;;;;;;7.30;99.90;;;;;;5055570;28;19932;-75
2022/12/22 10:51:11;;;;;;;;;;;7.40;99.90;;;;;;4996198;28;200359;-74
2022/12/22 10:53:45;;;;;;;;;;;7.60;99.90;;;;;;5051480;28;19928;-73
2022/12/22 10:56:26;;;;;;;;;;;7.60;99.90;;;;;;5025136;28;111269;-75
2022/12/22 10:58:53;;;;;;;;;;;7.70;99.90;;;;;;5078589;28;19933;-73
2022/12/22 11:01:28;;;;;;;;;;;7.70;99.90;;;;;;5003505;28;228950;-74
2022/12/22 11:03:55;;;;;;;;;;;7.70;99.90;;;;;;5059626;28;19921;-71
2022/12/22 11:06:22;;;;;;;;;;;7.70;99.90;;;;;;4990115;28;131860;-73
2022/12/22 11:08:48;;;;;;;;;;;7.70;99.90;;;;;;5051082;28;19935;-72
2022/12/22 11:11:17;;;;;;;;;;;7.60;99.90;;;;;;5006590;28;211399;-71
2022/12/22 11:13:48;;;;;;;;;;;7.60;99.90;;;;;;5050693;28;19924;-72
2022/12/22 11:16:21;;;;;;;;;;;7.50;99.90;;;;;;5027909;28;51193;-72
2022/12/22 11:18:50;;;;;;;;;;;7.60;99.90;;;;;;5042786;28;20409;-72
2022/12/22 11:21:20;;;;;;;;;;;7.60;99.90;;;;;;4999696;28;207937;-73
2022/12/22 11:24:04;;;;;;;;;;;7.60;99.90;;;;;;5053224;28;20435;-74
2022/12/22 11:26:30;;;;;;;;;;;7.60;99.90;;;;;;5013745;28;214342;-71
2022/12/22 11:29:04;;;;;;;;;;;7.70;99.90;;;;;;5060532;28;19920;-72
2022/12/22 11:31:48;;;;;;;;;;;7.70;99.90;;;;;;5014483;28;153938;-76
2022/12/22 11:34:33;;;;;;;;;;;7.80;99.90;;;;;;5062034;28;20316;-72
2022/12/22 11:37:02;;;;;;;;;;;7.90;99.90;;;;;;4987525;28;208000;-74
2022/12/22 11:39:41;;;;;;;;;;;7.90;99.90;;;;;;5059364;28;20408;-72
2022/12/22 11:42:20;;;;;;;;;;;7.90;99.90;;;;;;5023314;28;212727;-73
2022/12/22 11:45:04;;;;;;;;;;;8.00;99.90;;;;;;5087062;28;19940;-72
2022/12/22 11:47:49;;;;;;;;;;;8.00;99.90;;;;;;4998204;28;209164;-76
2022/12/22 11:50:17;;;;;;;;;;;8.00;99.90;;;;;;5033767;28;208616;-73
2022/12/22 11:52:46;;;;;;;;;;;7.90;99.90;;;;;;5046457;28;19928;-75
2022/12/22 11:55:50;;;;;;;;;;;7.90;99.90;;;;;;5013015;28;207985;-74
2022/12/22 11:58:35;;;;;;;;;;;7.90;99.90;;;;;;5025212;28;20334;-75
2022/12/22 12:01:24;;;;;;;;;;;8.00;99.90;;;;;;4971551;28;209245;-73
2022/12/22 12:04:12;;;;;;;;;;;8.00;99.90;;;;;;5032863;28;20386;-73
2022/12/22 12:06:55;;;;;;;;;;;8.00;99.90;;;;;;4951062;28;215090;-74
2022/12/22 12:09:30;;;;;;;;;;;8.00;99.90;;;;;;5004951;28;20617;-73
2022/12/22 12:12:14;;;;;;;;;;;7.90;99.90;;;;;;4947439;28;151601;-75
2022/12/22 12:14:49;;;;;;;;;;;8.00;99.90;;;;;;5015495;28;20323;-72
2022/12/22 12:17:34;;;;;;;;;;;8.50;99.90;;;;;;4992807;28;148885;-73
2022/12/22 12:20:00;;;;;;;;;;;10.00;99.90;;;;;;4998709;28;157393;-74
2022/12/22 12:22:25;;;;;;;;;;;11.10;99.90;;;;;;4986297;28;19929;-73
2022/12/22 12:25:02;;;;;;;;;;;11.80;99.90;;;;;;5035416;28;19935;-73
2022/12/22 12:27:39;;;;;;;;;;;12.30;99.90;;;;;;4952888;28;208117;-73
2022/12/22 12:30:15;;;;;;;;;;;12.60;99.90;;;;;;5012277;28;208003;-73
2022/12/22 12:33:07;;;;;;;;;;;13.20;99.90;;;;;;5033258;28;19928;-72
2022/12/22 12:35:37;;;;;;;;;;;13.30;99.90;;;;;;5004306;28;129699;-73
2022/12/22 12:38:08;;;;;;;;;;;13.10;99.90;;;;;;5014845;28;19932;-74
2022/12/22 12:40:45;;;;;;;;;;;13.00;99.90;;;;;;5008222;28;174681;-72
2022/12/22 12:43:12;;;;;;;;;;;13.20;99.90;;;;;;5048546;28;19931;-76
2022/12/22 12:45:42;;;;;;;;;;;13.30;99.90;;;;;;5012675;28;87951;-72
2022/12/22 12:48:23;;;;;;;;;;;13.40;99.90;;;;;;5030119;28;19927;-72
2022/12/22 12:50:56;;;;;;;;;;;13.70;99.90;;;;;;5009182;28;208292;-76
2022/12/22 12:53:22;;;;;;;;;;;13.00;99.90;;;;;;5042658;28;19932;-72
2022/12/22 12:55:51;;;;;;;;;;;12.80;99.90;;;;;;4999173;28;211243;-72
2022/12/22 12:58:38;;;;;;;;;;;12.40;99.90;;;;;;5057538;28;19931;-72
2022/12/22 13:01:08;;;;;;;;;;;11.50;99.90;;;;;;5013859;28;100350;-72
2022/12/22 13:03:35;;;;;;;;;;;10.90;99.90;;;;;;5083363;28;19924;-73
2022/12/22 13:06:02;;;;;;;;;;;10.70;99.90;;;;;;4993806;28;206828;-72
2022/12/22 13:08:29;;;;;;;;;;;11.10;99.90;;;;;;5050745;28;19925;-73
2022/12/22 13:10:55;;;;;;;;;;;10.60;99.90;;;;;;4999482;28;165190;-71
2022/12/22 13:13:21;;;;;;;;;;;10.30;99.90;;;;;;5026909;28;19924;-72
2022/12/22 13:16:07;;;;;;;;;;;10.60;99.90;;;;;;4996219;28;208001;-71
2022/12/22 13:18:33;;;;;;;;;;;11.10;99.90;;;;;;5039615;28;20290;-71
2022/12/22 13:20:59;;;;;;;;;;;10.80;99.90;;;;;;5006020;28;213195;-72
2022/12/22 13:23:29;;;;;;;;;;;10.40;99.90;;;;;;5047461;28;19944;-72
2022/12/22 13:26:01;;;;;;;;;;;10.20;99.90;;;;;;5003251;28;124699;-73
2022/12/22 13:28:28;;;;;;;;;;;10.40;99.90;;;;;;5057672;28;20000;-72
2022/12/22 13:30:58;;;;;;;;;;;10.30;99.90;;;;;;4992630;28;207592;-72
2022/12/22 13:33:27;;;;;;;;;;;10.40;99.90;;;;;;5068856;28;19932;-73
2022/12/22 13:35:55;;;;;;;;;;;10.60;99.90;;;;;;5010601;28;106289;-73
2022/12/22 13:38:34;;;;;;;;;;;10.90;99.90;;;;;;5047915;28;19924;-74
2022/12/22 13:41:12;;;;;;;;;;;11.30;99.90;;;;;;4994778;28;220606;-74
2022/12/22 13:43:41;;;;;;;;;;;10.90;99.90;;;;;;5051943;28;19924;-73
2022/12/22 13:46:07;;;;;;;;;;;10.60;99.90;;;;;;5008062;28;208167;-74
2022/12/22 13:48:38;;;;;;;;;;;10.40;99.90;;;;;;5040043;28;19921;-73
2022/12/22 13:51:16;;;;;;;;;;;10.50;99.90;;;;;;5006847;28;107702;-72
2022/12/22 13:53:53;;;;;;;;;;;10.50;99.90;;;;;;5055218;28;19935;-72
2022/12/22 13:56:22;;;;;;;;;;;10.50;99.90;;;;;;5010266;28;208401;-72
2022/12/22 13:58:54;;;;;;;;;;;10.40;99.90;;;;;;5048395;28;19921;-71
2022/12/22 14:01:20;;;;;;;;;;;10.40;99.90;;;;;;4999207;28;194265;-71
2022/12/22 14:03:47;;;;;;;;;;;10.40;99.90;;;;;;5049529;28;19925;-71
2022/12/22 14:06:27;;;;;;;;;;;10.20;99.90;;;;;;4980995;28;202570;-73
2022/12/22 14:08:53;;;;;;;;;;;10.10;99.90;;;;;;5077594;28;19924;-71
2022/12/22 14:11:20;;;;;;;;;;;10.00;99.90;;;;;;5013160;28;207047;-72
2022/12/22 14:13:46;;;;;;;;;;;9.80;99.90;;;;;;5049424;28;20456;-72
2022/12/22 14:16:13;;;;;;;;;;;9.80;99.90;;;;;;5006581;28;208302;-71
2022/12/22 14:18:39;;;;;;;;;;;9.80;99.90;;;;;;5054285;28;20287;-72
2022/12/22 14:21:06;;;;;;;;;;;9.70;99.90;;;;;;5008496;28;197076;-71
2022/12/22 14:23:33;;;;;;;;;;;9.70;99.90;;;;;;5053322;28;19924;-71
2022/12/22 14:26:02;;;;;;;;;;;9.70;99.90;;;;;;5002279;28;205049;-72
2022/12/22 14:28:41;;;;;;;;;;;9.70;99.90;;;;;;5054910;28;19928;-71
2022/12/22 14:31:07;;;;;;;;;;;9.70;99.90;;;;;;5004928;28;171116;-72
2022/12/22 14:33:33;;;;;;;;;;;9.70;99.90;;;;;;5045706;28;20647;-71
2022/12/22 14:36:22;;;;;;;;;;;9.70;99.90;;;;;;5010727;28;194788;-71
2022/12/22 14:38:53;;;;;;;;;;;9.60;99.90;;;;;;5004897;28;19921;-71
2022/12/22 14:41:40;;;;;;;;;;;9.50;99.90;;;;;;4962721;28;207138;-71
2022/12/22 14:44:12;;;;;;;;;;;9.40;99.90;;;;;;5025964;28;19929;-73
2022/12/22 14:46:39;;;;;;;;;;;9.30;99.90;;;;;;4975701;28;193912;-72
2022/12/22 14:49:11;;;;;;;;;;;9.30;99.90;;;;;;5006121;28;20294;-70
2022/12/22 14:51:37;;;;;;;;;;;9.20;99.90;;;;;;4952266;28;215951;-71
2022/12/22 14:54:03;;;;;;;;;;;9.10;99.90;;;;;;5006255;28;20382;-71
2022/12/22 14:56:29;;;;;;;;;;;9.10;99.90;;;;;;4946886;28;206606;-72
2022/12/22 14:59:09;;;;;;;;;;;9.00;99.90;;;;;;4998580;28;19925;-72
2022/12/22 15:01:35;;;;;;;;;;;9.00;99.90;;;;;;4963008;28;208774;-72
2022/12/22 15:04:27;;;;;;;;;;;8.90;99.90;;;;;;4992156;28;19932;-73
2022/12/22 15:07:14;;;;;;;;;;;8.90;99.90;;;;;;4954634;28;207830;-72
2022/12/22 15:09:40;;;;;;;;;;;8.90;99.90;;;;;;5025351;28;20410;-72
2022/12/22 15:12:09;;;;;;;;;;;8.80;99.90;;;;;;4943657;28;208571;-73
2022/12/22 15:14:36;;;;;;;;;;;8.70;99.90;;;;;;5007974;28;19924;-72
2022/12/22 15:17:03;;;;;;;;;;;8.70;99.90;;;;;;4992895;28;208723;-72
2022/12/22 15:19:31;;;;;;;;;;;8.70;99.90;;;;;;5087638;28;19929;-73
2022/12/22 15:21:57;;;;;;;;;;;8.70;99.90;;;;;;5004352;28;207892;-73
2022/12/22 15:24:23;;;;;;;;;;;8.60;99.90;;;;;;5073878;28;19933;-74
2022/12/22 15:26:49;;;;;;;;;;;8.60;99.90;;;;;;4999293;28;208842;-74
2022/12/22 15:29:15;;;;;;;;;;;8.50;99.90;;;;;;5051726;28;19932;-74
2022/12/22 15:31:42;;;;;;;;;;;8.40;99.90;;;;;;4997580;28;208174;-72
2022/12/22 15:34:26;;;;;;;;;;;8.40;99.90;;;;;;5056040;28;19939;-72
2022/12/22 15:36:52;;;;;;;;;;;8.30;99.90;;;;;;4978171;28;207450;-72
2022/12/22 15:39:19;;;;;;;;;;;8.30;99.90;;;;;;5038420;28;19929;-72
2022/12/22 15:41:45;;;;;;;;;;;8.30;99.90;;;;;;4999710;28;174396;-71
2022/12/22 15:44:11;;;;;;;;;;;8.30;99.90;;;;;;5056576;28;19927;-72
2022/12/22 15:46:38;;;;;;;;;;;8.20;99.90;;;;;;5009945;28;208900;-71
2022/12/22 15:49:05;;;;;;;;;;;8.20;99.90;;;;;;5050765;28;19924;-73
2022/12/22 15:51:32;;;;;;;;;;;8.30;99.90;;;;;;5023043;28;208862;-73
2022/12/22 15:53:58;;;;;;;;;;;8.20;99.90;;;;;;5046423;28;19928;-73
2022/12/22 15:56:25;;;;;;;;;;;8.20;99.90;;;;;;5020480;28;163527;-72
2022/12/22 15:58:52;;;;;;;;;;;8.20;99.90;;;;;;5083700;28;20317;-73
2022/12/22 16:01:18;;;;;;;;;;;8.20;99.90;;;;;;5019561;28;200715;-72
2022/12/22 16:03:44;;;;;;;;;;;8.20;99.90;;;;;;5042609;28;20390;-72
2022/12/22 16:06:14;;;;;;;;;;;8.20;99.90;;;;;;4997916;28;182080;-70
2022/12/22 16:08:41;;;;;;;;;;;8.20;99.90;;;;;;5056935;28;20378;-69
2022/12/22 16:11:08;;;;;;;;;;;8.10;99.90;;;;;;4995171;28;204426;-70
2022/12/22 16:13:35;;;;;;;;;;;8.10;99.90;;;;;;5062686;28;20210;-70
2022/12/22 16:16:01;;;;;;;;;;;8.10;99.90;;;;;;5002409;28;209576;-70
2022/12/22 16:18:27;;;;;;;;;;;8.10;99.90;;;;;;5063716;28;20278;-71
2022/12/22 16:20:53;;;;;;;;;;;8.10;99.90;;;;;;5004084;28;150038;-71
2022/12/22 16:23:21;;;;;;;;;;;8.10;99.90;;;;;;5043878;28;19928;-71
2022/12/22 16:25:48;;;;;;;;;;;8.10;99.90;;;;;;5012029;28;181292;-71
2022/12/22 16:28:21;;;;;;;;;;;8.10;99.90;;;;;;5050720;28;19924;-71
2022/12/22 16:30:47;;;;;;;;;;;8.10;99.90;;;;;;5012542;28;113648;-71
2022/12/22 16:33:14;;;;;;;;;;;8.10;99.90;;;;;;5055068;28;19924;-71
2022/12/22 16:35:40;;;;;;;;;;;8.10;99.90;;;;;;5008298;28;206418;-70
2022/12/22 16:38:07;;;;;;;;;;;8.10;99.90;;;;;;5073331;28;19924;-71
2022/12/22 16:40:38;;;;;;;;;;;8.10;99.90;;;;;;4988172;28;206636;-71
2022/12/22 16:43:09;;;;;;;;;;;8.10;99.90;;;;;;5072411;28;19921;-70
2022/12/22 16:45:36;;;;;;;;;;;8.10;99.90;;;;;;5018034;28;156621;-69
2022/12/22 16:48:09;;;;;;;;;;;8.10;99.90;;;;;;5039756;28;19932;-69
2022/12/22 16:50:34;;;;;;;;;;;8.10;99.90;;;;;;5003267;28;199010;-70
2022/12/22 16:53:02;;;;;;;;;;;8.10;99.90;;;;;;5049236;28;19931;-69
2022/12/22 16:55:28;;;;;;;;;;;8.10;99.90;;;;;;5013962;28;114059;-70
2022/12/22 16:57:58;;;;;;;;;;;8.10;99.90;;;;;;5048367;28;20309;-71
2022/12/22 17:00:27;;;;;;;;;;;8.00;99.90;;;;;;5046363;28;190453;-71
2022/12/22 17:03:01;;;;;;;;;;;8.00;99.90;;;;;;5053603;28;19936;-71
2022/12/22 17:05:27;;;;;;;;;;;7.90;99.90;;;;;;5001876;28;192367;-71
2022/12/22 17:07:54;;;;;;;;;;;7.90;99.90;;;;;;5050561;28;19924;-71
2022/12/22 17:10:21;;;;;;;;;;;7.90;99.90;;;;;;5006577;28;210647;-71
2022/12/22 17:12:47;;;;;;;;;;;7.80;99.90;;;;;;5054140;28;19924;-71
2022/12/22 17:15:20;;;;;;;;;;;7.80;99.90;;;;;;5015821;28;207326;-68
2022/12/22 17:17:46;;;;;;;;;;;7.70;99.90;;;;;;5072140;28;20308;-72
2022/12/22 17:20:13;;;;;;;;;;;7.70;99.90;;;;;;5024232;28;210779;-72
2022/12/22 17:22:40;;;;;;;;;;;7.70;99.90;;;;;;5090134;28;19921;-70
2022/12/22 17:25:13;;;;;;;;;;;7.70;99.90;;;;;;5024295;28;216104;-70
2022/12/22 17:27:39;;;;;;;;;;;7.70;99.90;;;;;;5044474;28;20008;-71
2022/12/22 17:30:06;;;;;;;;;;;7.60;99.90;;;;;;5006328;28;207433;-72
2022/12/22 17:32:32;;;;;;;;;;;7.60;99.90;;;;;;5047705;28;19924;-72
2022/12/22 17:34:57;;;;;;;;;;;7.60;99.90;;;;;;5054458;28;207516;-72
2022/12/22 17:37:23;;;;;;;;;;;7.60;99.90;;;;;;5012675;28;228025;-71
2022/12/22 17:39:53;;;;;;;;;;;7.60;99.90;;;;;;5054975;28;19950;-71
2022/12/22 17:42:22;;;;;;;;;;;7.50;99.90;;;;;;5001027;28;103924;-72
2022/12/22 17:44:49;;;;;;;;;;;7.50;99.90;;;;;;5091356;28;19925;-71
2022/12/22 17:47:16;;;;;;;;;;;7.50;99.90;;;;;;5002690;28;153391;-70
2022/12/22 17:49:42;;;;;;;;;;;7.50;99.90;;;;;;5082388;28;19921;-70
2022/12/22 17:52:19;;;;;;;;;;;7.40;99.90;;;;;;5008045;28;211378;-71
2022/12/22 17:54:46;;;;;;;;;;;7.40;99.90;;;;;;5092496;28;19928;-70
2022/12/22 17:57:19;;;;;;;;;;;7.40;99.90;;;;;;4997511;28;208619;-70
2022/12/22 17:59:44;;;;;;;;;;;7.40;99.90;;;;;;5067605;28;19931;-70
2022/12/22 18:02:17;;;;;;;;;;;7.40;99.90;;;;;;4995349;28;155638;-70
2022/12/22 18:04:44;;;;;;;;;;;7.40;99.90;;;;;;5060758;28;19929;-70
2022/12/22 18:07:11;;;;;;;;;;;7.40;99.90;;;;;;4996707;28;192370;-72
2022/12/22 18:09:37;;;;;;;;;;;7.30;99.90;;;;;;5059423;28;19924;-71
2022/12/22 18:12:05;;;;;;;;;;;7.30;99.90;;;;;;5001442;28;207242;-71
2022/12/22 18:14:31;;;;;;;;;;;7.30;99.90;;;;;;5059387;28;19932;-72